sensor_id;sensor_type;location;lat;lon;timestamp;P1;durP1;ratioP1;P2;durP2;ratioP2
65558;SDS011;52203;51.998;5.140;2022-09-14T00:01:08;3.10;;;1.52;;
65558;SDS011;52203;51.998;5.140;2022-09-14T00:03:34;5.15;;;2.15;;
65558;SDS011;52203;51.998;5.140;2022-09-14T00:06:04;4.35;;;1.63;;
65558;SDS011;52203;51.998;5.140;2022-09-14T00:08:34;5.10;;;1.50;;
65558;SDS011;52203;51.998;5.140;2022-09-14T00:11:07;5.78;;;1.60;;
65558;SDS011;52203;51.998;5.140;2022-09-14T00:13:37;7.97;;;1.83;;
65558;SDS011;52203;51.998;5.140;2022-09-14T00:16:05;2.55;;;1.35;;
65558;SDS011;52203;51.998;5.140;2022-09-14T00:18:32;2.88;;;1.40;;
65558;SDS011;52203;51.998;5.140;2022-09-14T00:21:02;1.88;;;1.20;;
65558;SDS011;52203;51.998;5.140;2022-09-14T00:23:30;3.63;;;1.45;;
65558;SDS011;52203;51.998;5.140;2022-09-14T00:26:01;6.75;;;1.98;;
65558;SDS011;52203;51.998;5.140;2022-09-14T00:28:30;3.85;;;1.30;;
65558;SDS011;52203;51.998;5.140;2022-09-14T00:30:55;3.10;;;1.30;;
65558;SDS011;52203;51.998;5.140;2022-09-14T00:33:21;5.10;;;1.60;;
65558;SDS011;52203;51.998;5.140;2022-09-14T00:35:46;4.47;;;1.38;;
65558;SDS011;52203;51.998;5.140;2022-09-14T00:38:12;4.90;;;1.30;;
65558;SDS011;52203;51.998;5.140;2022-09-14T00:40:37;4.28;;;1.60;;
65558;SDS011;52203;51.998;5.140;2022-09-14T00:43:04;6.47;;;1.55;;
65558;SDS011;52203;51.998;5.140;2022-09-14T00:45:38;4.45;;;1.88;;
65558;SDS011;52203;51.998;5.140;2022-09-14T00:48:03;5.80;;;1.80;;
65558;SDS011;52203;51.998;5.140;2022-09-14T00:50:29;2.67;;;1.50;;
65558;SDS011;52203;51.998;5.140;2022-09-14T00:52:55;4.28;;;1.48;;
65558;SDS011;52203;51.998;5.140;2022-09-14T00:55:21;4.13;;;1.45;;
65558;SDS011;52203;51.998;5.140;2022-09-14T00:57:51;4.93;;;1.80;;
65558;SDS011;52203;51.998;5.140;2022-09-14T01:00:20;2.17;;;1.40;;
65558;SDS011;52203;51.998;5.140;2022-09-14T01:02:49;5.15;;;1.90;;
65558;SDS011;52203;51.998;5.140;2022-09-14T01:05:15;3.95;;;1.58;;
65558;SDS011;52203;51.998;5.140;2022-09-14T01:07:45;3.72;;;1.50;;
65558;SDS011;52203;51.998;5.140;2022-09-14T01:15:53;5.10;;;1.50;;
65558;SDS011;52203;51.998;5.140;2022-09-14T01:18:43;3.03;;;1.27;;
65558;SDS011;52203;51.998;5.140;2022-09-14T01:21:18;3.53;;;1.45;;
65558;SDS011;52203;51.998;5.140;2022-09-14T01:24:02;3.72;;;1.45;;
65558;SDS011;52203;51.998;5.140;2022-09-14T01:34:49;4.90;;;1.60;;
65558;SDS011;52203;51.998;5.140;2022-09-14T01:40:29;4.47;;;1.35;;
65558;SDS011;52203;51.998;5.140;2022-09-14T01:43:01;3.72;;;1.60;;
65558;SDS011;52203;51.998;5.140;2022-09-14T01:45:34;2.55;;;1.38;;
65558;SDS011;52203;51.998;5.140;2022-09-14T01:48:06;5.90;;;1.67;;
65558;SDS011;52203;51.998;5.140;2022-09-14T01:50:40;5.07;;;1.60;;
65558;SDS011;52203;51.998;5.140;2022-09-14T01:58:36;2.63;;;1.40;;
65558;SDS011;52203;51.998;5.140;2022-09-14T02:01:06;4.40;;;1.58;;
65558;SDS011;52203;51.998;5.140;2022-09-14T02:03:40;3.35;;;1.30;;
65558;SDS011;52203;51.998;5.140;2022-09-14T02:06:19;5.53;;;1.30;;
65558;SDS011;52203;51.998;5.140;2022-09-14T02:09:09;3.53;;;1.50;;
65558;SDS011;52203;51.998;5.140;2022-09-14T02:11:37;3.75;;;1.52;;
65558;SDS011;52203;51.998;5.140;2022-09-14T02:14:04;3.55;;;1.40;;
65558;SDS011;52203;51.998;5.140;2022-09-14T02:16:30;3.30;;;1.70;;
65558;SDS011;52203;51.998;5.140;2022-09-14T02:18:56;3.75;;;1.50;;
65558;SDS011;52203;51.998;5.140;2022-09-14T02:21:29;3.08;;;1.40;;
65558;SDS011;52203;51.998;5.140;2022-09-14T02:23:59;5.15;;;1.70;;
65558;SDS011;52203;51.998;5.140;2022-09-14T02:26:25;3.85;;;1.38;;
65558;SDS011;52203;51.998;5.140;2022-09-14T02:28:52;4.10;;;1.40;;
65558;SDS011;52203;51.998;5.140;2022-09-14T02:42:17;2.95;;;1.35;;
65558;SDS011;52203;51.998;5.140;2022-09-14T02:45:01;2.92;;;1.33;;
65558;SDS011;52203;51.998;5.140;2022-09-14T02:50:34;3.83;;;1.83;;
65558;SDS011;52203;51.998;5.140;2022-09-14T02:55:51;3.53;;;1.30;;
65558;SDS011;52203;51.998;5.140;2022-09-14T02:58:24;3.05;;;1.30;;
65558;SDS011;52203;51.998;5.140;2022-09-14T03:00:57;3.20;;;1.20;;
65558;SDS011;52203;51.998;5.140;2022-09-14T03:03:22;4.28;;;1.50;;
65558;SDS011;52203;51.998;5.140;2022-09-14T03:05:48;3.40;;;1.40;;
65558;SDS011;52203;51.998;5.140;2022-09-14T03:08:13;5.47;;;1.65;;
65558;SDS011;52203;51.998;5.140;2022-09-14T03:10:40;4.75;;;1.48;;
65558;SDS011;52203;51.998;5.140;2022-09-14T03:13:07;3.13;;;1.33;;
65558;SDS011;52203;51.998;5.140;2022-09-14T03:15:32;3.83;;;1.40;;
65558;SDS011;52203;51.998;5.140;2022-09-14T03:17:58;5.05;;;1.30;;
65558;SDS011;52203;51.998;5.140;2022-09-14T03:20:24;4.00;;;1.73;;
65558;SDS011;52203;51.998;5.140;2022-09-14T03:22:52;2.97;;;1.50;;
65558;SDS011;52203;51.998;5.140;2022-09-14T03:25:18;5.70;;;1.58;;
65558;SDS011;52203;51.998;5.140;2022-09-14T03:27:48;4.55;;;1.55;;
65558;SDS011;52203;51.998;5.140;2022-09-14T03:30:14;4.75;;;1.40;;
65558;SDS011;52203;51.998;5.140;2022-09-14T03:32:40;5.28;;;1.77;;
65558;SDS011;52203;51.998;5.140;2022-09-14T03:35:06;4.18;;;1.92;;
65558;SDS011;52203;51.998;5.140;2022-09-14T03:37:35;2.97;;;1.55;;
65558;SDS011;52203;51.998;5.140;2022-09-14T03:40:01;4.15;;;1.70;;
65558;SDS011;52203;51.998;5.140;2022-09-14T03:42:27;3.72;;;1.55;;
65558;SDS011;52203;51.998;5.140;2022-09-14T03:44:53;4.32;;;1.95;;
65558;SDS011;52203;51.998;5.140;2022-09-14T03:47:18;4.65;;;1.52;;
65558;SDS011;52203;51.998;5.140;2022-09-14T03:49:43;4.35;;;1.60;;
65558;SDS011;52203;51.998;5.140;2022-09-14T03:52:09;5.85;;;1.90;;
65558;SDS011;52203;51.998;5.140;2022-09-14T03:54:34;4.63;;;1.95;;
65558;SDS011;52203;51.998;5.140;2022-09-14T03:57:00;4.88;;;1.77;;
65558;SDS011;52203;51.998;5.140;2022-09-14T03:59:25;3.47;;;1.70;;
65558;SDS011;52203;51.998;5.140;2022-09-14T04:01:51;4.90;;;1.60;;
65558;SDS011;52203;51.998;5.140;2022-09-14T04:04:16;4.70;;;1.98;;
65558;SDS011;52203;51.998;5.140;2022-09-14T04:06:42;3.85;;;1.80;;
65558;SDS011;52203;51.998;5.140;2022-09-14T04:09:07;4.15;;;1.90;;
65558;SDS011;52203;51.998;5.140;2022-09-14T04:11:33;4.15;;;2.08;;
65558;SDS011;52203;51.998;5.140;2022-09-14T04:14:02;3.40;;;1.65;;
65558;SDS011;52203;51.998;5.140;2022-09-14T04:16:28;6.03;;;2.40;;
65558;SDS011;52203;51.998;5.140;2022-09-14T04:18:54;5.13;;;2.05;;
65558;SDS011;52203;51.998;5.140;2022-09-14T04:21:22;4.40;;;1.88;;
65558;SDS011;52203;51.998;5.140;2022-09-14T04:23:50;4.38;;;1.77;;
65558;SDS011;52203;51.998;5.140;2022-09-14T04:26:18;5.10;;;2.42;;
65558;SDS011;52203;51.998;5.140;2022-09-14T04:28:45;5.78;;;1.75;;
65558;SDS011;52203;51.998;5.140;2022-09-14T04:31:11;2.67;;;1.63;;
65558;SDS011;52203;51.998;5.140;2022-09-14T04:33:38;8.27;;;2.80;;
65558;SDS011;52203;51.998;5.140;2022-09-14T04:36:06;4.95;;;2.60;;
65558;SDS011;52203;51.998;5.140;2022-09-14T04:38:39;5.65;;;2.92;;
65558;SDS011;52203;51.998;5.140;2022-09-14T04:41:07;6.85;;;2.67;;
65558;SDS011;52203;51.998;5.140;2022-09-14T04:43:35;5.47;;;2.88;;
65558;SDS011;52203;51.998;5.140;2022-09-14T04:46:05;3.80;;;2.03;;
65558;SDS011;52203;51.998;5.140;2022-09-14T04:48:33;5.60;;;2.20;;
65558;SDS011;52203;51.998;5.140;2022-09-14T04:51:03;5.63;;;2.08;;
65558;SDS011;52203;51.998;5.140;2022-09-14T04:53:34;4.55;;;2.60;;
65558;SDS011;52203;51.998;5.140;2022-09-14T04:56:02;10.50;;;2.97;;
65558;SDS011;52203;51.998;5.140;2022-09-14T04:58:29;6.50;;;3.08;;
65558;SDS011;52203;51.998;5.140;2022-09-14T05:01:01;3.95;;;2.40;;
65558;SDS011;52203;51.998;5.140;2022-09-14T05:03:28;5.82;;;2.20;;
65558;SDS011;52203;51.998;5.140;2022-09-14T05:05:54;6.30;;;2.40;;
65558;SDS011;52203;51.998;5.140;2022-09-14T05:08:25;4.85;;;2.17;;
65558;SDS011;52203;51.998;5.140;2022-09-14T05:10:54;6.30;;;2.80;;
65558;SDS011;52203;51.998;5.140;2022-09-14T05:13:21;8.02;;;2.50;;
65558;SDS011;52203;51.998;5.140;2022-09-14T05:15:47;5.93;;;2.58;;
65558;SDS011;52203;51.998;5.140;2022-09-14T05:18:14;6.65;;;2.70;;
65558;SDS011;52203;51.998;5.140;2022-09-14T05:20:40;5.47;;;2.65;;
65558;SDS011;52203;51.998;5.140;2022-09-14T05:23:06;5.68;;;2.60;;
65558;SDS011;52203;51.998;5.140;2022-09-14T05:25:31;7.70;;;2.67;;
65558;SDS011;52203;51.998;5.140;2022-09-14T05:27:57;4.72;;;2.33;;
65558;SDS011;52203;51.998;5.140;2022-09-14T05:30:23;4.88;;;1.85;;
65558;SDS011;52203;51.998;5.140;2022-09-14T05:32:48;5.60;;;2.28;;
65558;SDS011;52203;51.998;5.140;2022-09-14T05:35:14;5.40;;;2.58;;
65558;SDS011;52203;51.998;5.140;2022-09-14T05:37:39;4.05;;;1.80;;
65558;SDS011;52203;51.998;5.140;2022-09-14T05:40:05;8.40;;;2.88;;
65558;SDS011;52203;51.998;5.140;2022-09-14T05:42:32;2.92;;;1.65;;
65558;SDS011;52203;51.998;5.140;2022-09-14T05:44:58;6.53;;;3.22;;
65558;SDS011;52203;51.998;5.140;2022-09-14T05:47:24;4.55;;;2.35;;
65558;SDS011;52203;51.998;5.140;2022-09-14T05:49:49;4.72;;;2.20;;
65558;SDS011;52203;51.998;5.140;2022-09-14T05:52:15;8.05;;;2.75;;
65558;SDS011;52203;51.998;5.140;2022-09-14T05:54:41;4.32;;;2.67;;
65558;SDS011;52203;51.998;5.140;2022-09-14T05:57:06;5.30;;;2.60;;
65558;SDS011;52203;51.998;5.140;2022-09-14T05:59:32;5.70;;;2.95;;
65558;SDS011;52203;51.998;5.140;2022-09-14T06:01:57;6.05;;;2.35;;
65558;SDS011;52203;51.998;5.140;2022-09-14T06:04:23;6.55;;;2.78;;
65558;SDS011;52203;51.998;5.140;2022-09-14T06:06:49;3.63;;;2.00;;
65558;SDS011;52203;51.998;5.140;2022-09-14T06:09:14;7.60;;;3.35;;
65558;SDS011;52203;51.998;5.140;2022-09-14T06:11:40;6.43;;;3.17;;
65558;SDS011;52203;51.998;5.140;2022-09-14T06:14:06;3.95;;;2.15;;
65558;SDS011;52203;51.998;5.140;2022-09-14T06:16:32;5.78;;;2.65;;
65558;SDS011;52203;51.998;5.140;2022-09-14T06:18:59;6.53;;;2.75;;
65558;SDS011;52203;51.998;5.140;2022-09-14T06:21:32;6.28;;;2.20;;
65558;SDS011;52203;51.998;5.140;2022-09-14T06:23:59;5.72;;;3.13;;
65558;SDS011;52203;51.998;5.140;2022-09-14T06:26:25;6.13;;;2.65;;
65558;SDS011;52203;51.998;5.140;2022-09-14T06:28:50;7.97;;;2.80;;
65558;SDS011;52203;51.998;5.140;2022-09-14T06:31:16;6.53;;;2.72;;
65558;SDS011;52203;51.998;5.140;2022-09-14T06:33:46;6.68;;;2.50;;
65558;SDS011;52203;51.998;5.140;2022-09-14T06:36:14;7.82;;;3.05;;
65558;SDS011;52203;51.998;5.140;2022-09-14T06:38:43;6.20;;;1.95;;
65558;SDS011;52203;51.998;5.140;2022-09-14T06:41:10;6.68;;;2.25;;
65558;SDS011;52203;51.998;5.140;2022-09-14T06:43:38;2.92;;;1.70;;
65558;SDS011;52203;51.998;5.140;2022-09-14T06:48:36;3.95;;;2.20;;
65558;SDS011;52203;51.998;5.140;2022-09-14T06:51:20;3.85;;;1.83;;
65558;SDS011;52203;51.998;5.140;2022-09-14T06:53:46;4.50;;;2.10;;
65558;SDS011;52203;51.998;5.140;2022-09-14T06:56:12;4.13;;;2.00;;
65558;SDS011;52203;51.998;5.140;2022-09-14T06:58:39;3.28;;;1.50;;
65558;SDS011;52203;51.998;5.140;2022-09-14T07:01:12;5.80;;;2.88;;
65558;SDS011;52203;51.998;5.140;2022-09-14T07:03:40;5.25;;;1.90;;
65558;SDS011;52203;51.998;5.140;2022-09-14T07:06:09;4.57;;;1.90;;
65558;SDS011;52203;51.998;5.140;2022-09-14T07:08:37;3.80;;;1.92;;
65558;SDS011;52203;51.998;5.140;2022-09-14T07:11:04;4.53;;;2.03;;
65558;SDS011;52203;51.998;5.140;2022-09-14T07:13:31;3.67;;;1.90;;
65558;SDS011;52203;51.998;5.140;2022-09-14T07:15:57;6.30;;;2.13;;
65558;SDS011;52203;51.998;5.140;2022-09-14T07:18:23;5.20;;;1.85;;
65558;SDS011;52203;51.998;5.140;2022-09-14T07:21:10;5.05;;;2.53;;
65558;SDS011;52203;51.998;5.140;2022-09-14T07:23:41;6.45;;;2.83;;
65558;SDS011;52203;51.998;5.140;2022-09-14T07:26:10;4.93;;;2.58;;
65558;SDS011;52203;51.998;5.140;2022-09-14T07:28:36;4.07;;;2.20;;
65558;SDS011;52203;51.998;5.140;2022-09-14T07:31:04;4.15;;;2.17;;
65558;SDS011;52203;51.998;5.140;2022-09-14T07:33:38;4.07;;;2.30;;
65558;SDS011;52203;51.998;5.140;2022-09-14T07:36:04;5.13;;;2.28;;
65558;SDS011;52203;51.998;5.140;2022-09-14T07:38:33;6.47;;;2.20;;
65558;SDS011;52203;51.998;5.140;2022-09-14T07:40:59;5.00;;;2.35;;
65558;SDS011;52203;51.998;5.140;2022-09-14T07:43:25;6.05;;;2.50;;
65558;SDS011;52203;51.998;5.140;2022-09-14T07:45:51;6.32;;;2.10;;
65558;SDS011;52203;51.998;5.140;2022-09-14T07:48:16;4.78;;;2.00;;
65558;SDS011;52203;51.998;5.140;2022-09-14T07:50:42;5.05;;;2.15;;
65558;SDS011;52203;51.998;5.140;2022-09-14T07:53:07;4.75;;;2.17;;
65558;SDS011;52203;51.998;5.140;2022-09-14T07:55:39;4.28;;;2.15;;
65558;SDS011;52203;51.998;5.140;2022-09-14T07:58:05;3.30;;;2.10;;
65558;SDS011;52203;51.998;5.140;2022-09-14T08:00:32;5.97;;;2.20;;
65558;SDS011;52203;51.998;5.140;2022-09-14T08:02:58;4.18;;;2.13;;
65558;SDS011;52203;51.998;5.140;2022-09-14T08:05:24;5.20;;;2.40;;
65558;SDS011;52203;51.998;5.140;2022-09-14T08:07:56;6.65;;;2.30;;
65558;SDS011;52203;51.998;5.140;2022-09-14T08:10:21;3.75;;;2.13;;
65558;SDS011;52203;51.998;5.140;2022-09-14T08:12:51;4.53;;;2.22;;
65558;SDS011;52203;51.998;5.140;2022-09-14T08:15:18;5.82;;;2.08;;
65558;SDS011;52203;51.998;5.140;2022-09-14T08:17:45;4.13;;;1.75;;
65558;SDS011;52203;51.998;5.140;2022-09-14T08:20:10;3.80;;;1.88;;
65558;SDS011;52203;51.998;5.140;2022-09-14T08:22:36;7.55;;;2.47;;
65558;SDS011;52203;51.998;5.140;2022-09-14T08:25:01;3.13;;;2.10;;
65558;SDS011;52203;51.998;5.140;2022-09-14T08:27:27;6.03;;;1.85;;
65558;SDS011;52203;51.998;5.140;2022-09-14T08:29:53;3.00;;;1.35;;
65558;SDS011;52203;51.998;5.140;2022-09-14T08:32:18;4.35;;;1.80;;
65558;SDS011;52203;51.998;5.140;2022-09-14T08:34:44;4.78;;;1.75;;
65558;SDS011;52203;51.998;5.140;2022-09-14T08:37:09;4.72;;;1.65;;
65558;SDS011;52203;51.998;5.140;2022-09-14T08:39:37;6.05;;;1.67;;
65558;SDS011;52203;51.998;5.140;2022-09-14T08:42:02;5.10;;;2.40;;
65558;SDS011;52203;51.998;5.140;2022-09-14T08:44:46;4.43;;;1.42;;
65558;SDS011;52203;51.998;5.140;2022-09-14T08:47:18;4.72;;;1.90;;
65558;SDS011;52203;51.998;5.140;2022-09-14T08:50:03;5.40;;;2.22;;
65558;SDS011;52203;51.998;5.140;2022-09-14T08:57:49;5.32;;;1.60;;
65558;SDS011;52203;51.998;5.140;2022-09-14T09:00:23;3.60;;;1.50;;
65558;SDS011;52203;51.998;5.140;2022-09-14T09:10:36;5.38;;;2.13;;
65558;SDS011;52203;51.998;5.140;2022-09-14T09:13:09;5.28;;;1.85;;
65558;SDS011;52203;51.998;5.140;2022-09-14T09:15:43;5.17;;;1.57;;
65558;SDS011;52203;51.998;5.140;2022-09-14T09:18:26;5.57;;;2.00;;
65558;SDS011;52203;51.998;5.140;2022-09-14T09:21:17;4.13;;;1.50;;
65558;SDS011;52203;51.998;5.140;2022-09-14T09:23:45;3.50;;;1.60;;
65558;SDS011;52203;51.998;5.140;2022-09-14T09:26:27;3.47;;;1.67;;
65558;SDS011;52203;51.998;5.140;2022-09-14T09:28:59;3.83;;;1.67;;
65558;SDS011;52203;51.998;5.140;2022-09-14T09:31:36;3.63;;;1.42;;
65558;SDS011;52203;51.998;5.140;2022-09-14T09:34:09;7.00;;;1.60;;
65558;SDS011;52203;51.998;5.140;2022-09-14T09:36:39;3.42;;;1.50;;
65558;SDS011;52203;51.998;5.140;2022-09-14T09:39:08;3.63;;;1.58;;
65558;SDS011;52203;51.998;5.140;2022-09-14T09:41:38;5.97;;;1.73;;
65558;SDS011;52203;51.998;5.140;2022-09-14T09:44:12;7.18;;;1.55;;
65558;SDS011;52203;51.998;5.140;2022-09-14T09:46:44;7.13;;;1.58;;
65558;SDS011;52203;51.998;5.140;2022-09-14T09:51:46;5.60;;;1.50;;
65558;SDS011;52203;51.998;5.140;2022-09-14T09:56:39;3.28;;;1.20;;
65558;SDS011;52203;51.998;5.140;2022-09-14T09:59:30;2.88;;;1.58;;
65558;SDS011;52203;51.998;5.140;2022-09-14T10:07:28;3.20;;;1.30;;
65558;SDS011;52203;51.998;5.140;2022-09-14T10:12:32;2.58;;;1.23;;
65558;SDS011;52203;51.998;5.140;2022-09-14T10:15:33;4.18;;;1.60;;
65558;SDS011;52203;51.998;5.140;2022-09-14T10:20:33;5.65;;;1.55;;
65558;SDS011;52203;51.998;5.140;2022-09-14T10:25:44;2.15;;;1.15;;
65558;SDS011;52203;51.998;5.140;2022-09-14T10:28:21;3.97;;;1.33;;
65558;SDS011;52203;51.998;5.140;2022-09-14T10:33:46;4.25;;;1.48;;
65558;SDS011;52203;51.998;5.140;2022-09-14T10:41:43;3.55;;;1.20;;
65558;SDS011;52203;51.998;5.140;2022-09-14T10:44:36;4.82;;;1.50;;
65558;SDS011;52203;51.998;5.140;2022-09-14T11:04:19;2.78;;;0.95;;
65558;SDS011;52203;51.998;5.140;2022-09-14T11:06:57;2.08;;;1.10;;
65558;SDS011;52203;51.998;5.140;2022-09-14T11:09:26;4.40;;;1.38;;
65558;SDS011;52203;51.998;5.140;2022-09-14T11:12:13;5.13;;;1.30;;
65558;SDS011;52203;51.998;5.140;2022-09-14T11:15:05;5.00;;;1.40;;
65558;SDS011;52203;51.998;5.140;2022-09-14T11:20:21;3.90;;;1.50;;
65558;SDS011;52203;51.998;5.140;2022-09-14T11:28:24;7.20;;;1.65;;
65558;SDS011;52203;51.998;5.140;2022-09-14T11:33:35;2.25;;;1.40;;
65558;SDS011;52203;51.998;5.140;2022-09-14T11:38:51;4.10;;;1.40;;
65558;SDS011;52203;51.998;5.140;2022-09-14T11:41:23;5.97;;;1.58;;
65558;SDS011;52203;51.998;5.140;2022-09-14T11:44:09;4.53;;;1.50;;
65558;SDS011;52203;51.998;5.140;2022-09-14T11:46:39;2.95;;;1.40;;
65558;SDS011;52203;51.998;5.140;2022-09-14T11:49:30;3.90;;;2.08;;
65558;SDS011;52203;51.998;5.140;2022-09-14T11:52:20;4.63;;;1.65;;
65558;SDS011;52203;51.998;5.140;2022-09-14T11:54:47;3.25;;;1.42;;
65558;SDS011;52203;51.998;5.140;2022-09-14T11:57:27;3.20;;;1.70;;
65558;SDS011;52203;51.998;5.140;2022-09-14T11:59:55;3.30;;;1.38;;
65558;SDS011;52203;51.998;5.140;2022-09-14T12:08:22;4.18;;;1.38;;
65558;SDS011;52203;51.998;5.140;2022-09-14T12:10:20;3.83;;;1.70;;
65558;SDS011;52203;51.998;5.140;2022-09-14T12:59:20;4.90;;;2.03;;
65558;SDS011;52203;51.998;5.140;2022-09-14T13:02:38;5.90;;;2.10;;
65558;SDS011;52203;51.998;5.140;2022-09-14T13:04:36;6.65;;;1.92;;
65558;SDS011;52203;51.998;5.140;2022-09-14T13:07:04;5.53;;;2.00;;
65558;SDS011;52203;51.998;5.140;2022-09-14T13:12:03;6.13;;;1.70;;
65558;SDS011;52203;51.998;5.140;2022-09-14T13:14:32;5.25;;;2.08;;
65558;SDS011;52203;51.998;5.140;2022-09-14T13:17:12;5.80;;;2.00;;
65558;SDS011;52203;51.998;5.140;2022-09-14T13:19:39;4.65;;;1.73;;
65558;SDS011;52203;51.998;5.140;2022-09-14T13:22:15;3.83;;;2.05;;
65558;SDS011;52203;51.998;5.140;2022-09-14T13:24:43;6.13;;;2.17;;
65558;SDS011;52203;51.998;5.140;2022-09-14T13:27:26;4.05;;;1.73;;
65558;SDS011;52203;51.998;5.140;2022-09-14T13:29:56;5.05;;;1.77;;
65558;SDS011;52203;51.998;5.140;2022-09-14T13:32:24;6.75;;;2.03;;
65558;SDS011;52203;51.998;5.140;2022-09-14T13:34:50;7.00;;;1.92;;
65558;SDS011;52203;51.998;5.140;2022-09-14T13:37:16;8.40;;;2.50;;
65558;SDS011;52203;51.998;5.140;2022-09-14T13:39:47;4.78;;;2.10;;
65558;SDS011;52203;51.998;5.140;2022-09-14T13:42:15;5.50;;;2.80;;
65558;SDS011;52203;51.998;5.140;2022-09-14T13:44:42;7.15;;;2.15;;
65558;SDS011;52203;51.998;5.140;2022-09-14T13:47:12;6.22;;;2.20;;
65558;SDS011;52203;51.998;5.140;2022-09-14T13:49:40;5.72;;;2.15;;
65558;SDS011;52203;51.998;5.140;2022-09-14T13:54:47;6.63;;;2.03;;
65558;SDS011;52203;51.998;5.140;2022-09-14T13:57:18;5.93;;;2.03;;
65558;SDS011;52203;51.998;5.140;2022-09-14T14:00:31;4.30;;;1.60;;
65558;SDS011;52203;51.998;5.140;2022-09-14T14:02:37;5.57;;;1.77;;
65558;SDS011;52203;51.998;5.140;2022-09-14T14:05:22;8.45;;;1.95;;
65558;SDS011;52203;51.998;5.140;2022-09-14T14:07:51;3.60;;;1.85;;
65558;SDS011;52203;51.998;5.140;2022-09-14T14:10:22;6.00;;;2.40;;
65558;SDS011;52203;51.998;5.140;2022-09-14T14:12:51;4.88;;;1.83;;
65558;SDS011;52203;51.998;5.140;2022-09-14T14:17:42;6.38;;;1.70;;
65558;SDS011;52203;51.998;5.140;2022-09-14T14:25:35;5.95;;;2.13;;
65558;SDS011;52203;51.998;5.140;2022-09-14T14:28:13;5.80;;;2.15;;
65558;SDS011;52203;51.998;5.140;2022-09-14T14:30:46;5.32;;;1.77;;
65558;SDS011;52203;51.998;5.140;2022-09-14T14:33:12;8.63;;;2.90;;
65558;SDS011;52203;51.998;5.140;2022-09-14T14:35:40;6.38;;;2.10;;
65558;SDS011;52203;51.998;5.140;2022-09-14T14:38:06;5.63;;;2.15;;
65558;SDS011;52203;51.998;5.140;2022-09-14T14:40:31;6.50;;;2.10;;
65558;SDS011;52203;51.998;5.140;2022-09-14T14:42:58;5.63;;;1.90;;
65558;SDS011;52203;51.998;5.140;2022-09-14T14:45:27;8.15;;;3.10;;
65558;SDS011;52203;51.998;5.140;2022-09-14T14:47:55;3.92;;;1.83;;
65558;SDS011;52203;51.998;5.140;2022-09-14T14:50:23;5.07;;;2.08;;
65558;SDS011;52203;51.998;5.140;2022-09-14T14:52:50;6.43;;;2.38;;
65558;SDS011;52203;51.998;5.140;2022-09-14T14:55:17;4.85;;;1.80;;
65558;SDS011;52203;51.998;5.140;2022-09-14T14:57:44;10.50;;;2.80;;
65558;SDS011;52203;51.998;5.140;2022-09-14T15:00:20;5.50;;;1.80;;
65558;SDS011;52203;51.998;5.140;2022-09-14T15:02:47;10.63;;;2.80;;
65558;SDS011;52203;51.998;5.140;2022-09-14T15:05:13;12.65;;;2.88;;
65558;SDS011;52203;51.998;5.140;2022-09-14T15:07:39;5.95;;;2.58;;
65558;SDS011;52203;51.998;5.140;2022-09-14T15:10:05;6.35;;;2.28;;
65558;SDS011;52203;51.998;5.140;2022-09-14T15:12:31;4.72;;;2.15;;
65558;SDS011;52203;51.998;5.140;2022-09-14T15:14:57;4.78;;;2.33;;
65558;SDS011;52203;51.998;5.140;2022-09-14T15:17:23;7.68;;;2.28;;
65558;SDS011;52203;51.998;5.140;2022-09-14T15:19:48;6.63;;;2.40;;
65558;SDS011;52203;51.998;5.140;2022-09-14T15:22:14;5.88;;;2.40;;
65558;SDS011;52203;51.998;5.140;2022-09-14T15:24:40;6.00;;;2.65;;
65558;SDS011;52203;51.998;5.140;2022-09-14T15:27:06;7.28;;;2.13;;
65558;SDS011;52203;51.998;5.140;2022-09-14T15:29:32;4.38;;;2.10;;
65558;SDS011;52203;51.998;5.140;2022-09-14T15:32:00;7.93;;;2.40;;
65558;SDS011;52203;51.998;5.140;2022-09-14T15:34:29;4.93;;;1.58;;
65558;SDS011;52203;51.998;5.140;2022-09-14T15:36:54;5.13;;;1.70;;
65558;SDS011;52203;51.998;5.140;2022-09-14T15:39:22;4.53;;;1.60;;
65558;SDS011;52203;51.998;5.140;2022-09-14T15:41:52;5.45;;;1.50;;
65558;SDS011;52203;51.998;5.140;2022-09-14T15:44:18;4.43;;;1.42;;
65558;SDS011;52203;51.998;5.140;2022-09-14T15:46:44;3.55;;;0.95;;
65558;SDS011;52203;51.998;5.140;2022-09-14T15:49:11;2.70;;;1.05;;
65558;SDS011;52203;51.998;5.140;2022-09-14T15:51:42;3.88;;;1.10;;
65558;SDS011;52203;51.998;5.140;2022-09-14T15:54:09;3.83;;;1.27;;
65558;SDS011;52203;51.998;5.140;2022-09-14T15:56:35;3.63;;;1.15;;
65558;SDS011;52203;51.998;5.140;2022-09-14T15:59:01;2.22;;;1.10;;
65558;SDS011;52203;51.998;5.140;2022-09-14T16:01:27;5.40;;;1.23;;
65558;SDS011;52203;51.998;5.140;2022-09-14T16:04:00;4.85;;;1.10;;
65558;SDS011;52203;51.998;5.140;2022-09-14T16:06:30;4.10;;;1.13;;
65558;SDS011;52203;51.998;5.140;2022-09-14T16:08:55;9.07;;;1.85;;
65558;SDS011;52203;51.998;5.140;2022-09-14T16:11:22;6.22;;;1.40;;
65558;SDS011;52203;51.998;5.140;2022-09-14T16:13:48;5.20;;;1.08;;
65558;SDS011;52203;51.998;5.140;2022-09-14T16:16:15;4.93;;;1.25;;
65558;SDS011;52203;51.998;5.140;2022-09-14T16:18:41;5.43;;;1.20;;
65558;SDS011;52203;51.998;5.140;2022-09-14T16:23:38;4.50;;;1.67;;
65558;SDS011;52203;51.998;5.140;2022-09-14T16:26:07;3.30;;;0.88;;
65558;SDS011;52203;51.998;5.140;2022-09-14T16:28:34;3.50;;;1.17;;
65558;SDS011;52203;51.998;5.140;2022-09-14T16:31:06;2.80;;;1.45;;
65558;SDS011;52203;51.998;5.140;2022-09-14T16:33:40;3.42;;;1.08;;
65558;SDS011;52203;51.998;5.140;2022-09-14T16:36:08;2.80;;;1.00;;
65558;SDS011;52203;51.998;5.140;2022-09-14T16:38:35;5.20;;;1.20;;
65558;SDS011;52203;51.998;5.140;2022-09-14T16:41:02;4.82;;;1.10;;
65558;SDS011;52203;51.998;5.140;2022-09-14T16:43:29;3.72;;;1.17;;
65558;SDS011;52203;51.998;5.140;2022-09-14T16:46:02;4.72;;;1.40;;
65558;SDS011;52203;51.998;5.140;2022-09-14T16:48:35;4.97;;;1.15;;
65558;SDS011;52203;51.998;5.140;2022-09-14T16:51:04;3.38;;;1.00;;
65558;SDS011;52203;51.998;5.140;2022-09-14T16:53:31;2.67;;;0.98;;
65558;SDS011;52203;51.998;5.140;2022-09-14T16:56:08;4.70;;;1.42;;
65558;SDS011;52203;51.998;5.140;2022-09-14T16:58:35;4.65;;;1.20;;
65558;SDS011;52203;51.998;5.140;2022-09-14T17:01:15;2.67;;;1.27;;
65558;SDS011;52203;51.998;5.140;2022-09-14T17:03:42;3.80;;;1.10;;
65558;SDS011;52203;51.998;5.140;2022-09-14T17:06:10;3.90;;;1.10;;
65558;SDS011;52203;51.998;5.140;2022-09-14T17:08:38;5.00;;;1.20;;
65558;SDS011;52203;51.998;5.140;2022-09-14T17:11:04;2.65;;;1.10;;
65558;SDS011;52203;51.998;5.140;2022-09-14T17:13:30;6.35;;;1.30;;
65558;SDS011;52203;51.998;5.140;2022-09-14T17:18:29;1.65;;;1.02;;
65558;SDS011;52203;51.998;5.140;2022-09-14T17:21:02;3.45;;;1.25;;
65558;SDS011;52203;51.998;5.140;2022-09-14T17:23:32;4.22;;;1.25;;
65558;SDS011;52203;51.998;5.140;2022-09-14T17:25:58;4.55;;;1.55;;
65558;SDS011;52203;51.998;5.140;2022-09-14T17:28:26;2.90;;;1.02;;
65558;SDS011;52203;51.998;5.140;2022-09-14T17:30:55;2.67;;;1.08;;
65558;SDS011;52203;51.998;5.140;2022-09-14T17:33:21;6.43;;;1.27;;
65558;SDS011;52203;51.998;5.140;2022-09-14T17:35:48;4.75;;;1.70;;
65558;SDS011;52203;51.998;5.140;2022-09-14T17:38:15;4.13;;;1.23;;
65558;SDS011;52203;51.998;5.140;2022-09-14T17:40:41;4.53;;;1.63;;
65558;SDS011;52203;51.998;5.140;2022-09-14T17:43:07;4.28;;;1.33;;
65558;SDS011;52203;51.998;5.140;2022-09-14T17:45:33;3.33;;;1.40;;
65558;SDS011;52203;51.998;5.140;2022-09-14T17:47:59;5.28;;;1.65;;
65558;SDS011;52203;51.998;5.140;2022-09-14T17:50:24;6.40;;;1.77;;
65558;SDS011;52203;51.998;5.140;2022-09-14T17:52:50;5.15;;;2.42;;
65558;SDS011;52203;51.998;5.140;2022-09-14T17:55:16;5.25;;;2.22;;
65558;SDS011;52203;51.998;5.140;2022-09-14T17:57:42;3.85;;;1.92;;
65558;SDS011;52203;51.998;5.140;2022-09-14T18:00:08;8.23;;;2.53;;
65558;SDS011;52203;51.998;5.140;2022-09-14T18:02:34;6.28;;;2.80;;